createdAt,value
2022-10-23T00:00:02.140Z,45.73265813734565
2022-10-23T00:15:01.833Z,45.75629449389684
2022-10-23T00:30:01.511Z,45.97129005418359
2022-10-23T00:45:02.193Z,46.36894078188454
2022-10-23T01:00:01.835Z,46.45505888152942
2022-10-23T01:15:01.523Z,45.762113539872765
2022-10-23T01:30:02.205Z,46.34080120008715
2022-10-23T01:45:01.809Z,46.54355174688821
2022-10-23T02:00:02.442Z,46.88106537824414
2022-10-23T02:15:02.089Z,46.766590093212955
2022-10-23T02:30:01.782Z,46.912789414109355
2022-10-23T02:45:01.484Z,47.061197434400476
2022-10-23T03:00:02.122Z,47.16374006327793
2022-10-23T03:15:01.762Z,47.14107208143706
2022-10-23T03:30:01.464Z,47.169750256781256
2022-10-23T03:45:02.092Z,47.096652666733306
2022-10-23T04:00:01.739Z,46.94678210584619
2022-10-23T04:15:01.405Z,46.87771031799729
2022-10-23T04:30:02.214Z,46.642207282582994
2022-10-23T04:45:01.887Z,46.403849004611565
2022-10-23T05:00:01.598Z,46.277514745462305
2022-10-23T05:15:02.206Z,45.9262431626872
2022-10-23T05:30:01.989Z,46.07099739008211
2022-10-23T05:45:01.700Z,45.27839329412199
2022-10-23T06:00:01.345Z,45.213472758301236
2022-10-23T06:15:02.119Z,45.20962266626108
2022-10-23T06:30:02.006Z,44.961175552055806
2022-10-23T06:45:04.910Z,44.57926896950675
2022-10-23T07:00:02.160Z,43.661214201729386
2022-10-23T07:15:01.808Z,43.276830489051044
2022-10-23T07:30:02.492Z,42.42786169171791
2022-10-23T07:45:02.112Z,41.71934041893941
2022-10-23T08:00:01.715Z,41.28441666115321
2022-10-23T08:15:02.346Z,40.79088227797548
2022-10-23T08:30:02.021Z,39.38939419891026
2022-10-23T08:45:01.674Z,38.75120619613925
2022-10-23T09:00:02.311Z,38.76674524407862
2022-10-23T09:15:02.017Z,38.073083756963214
2022-10-23T09:30:01.726Z,38.24663023367513
2022-10-23T09:45:02.402Z,38.70496328628849
2022-10-23T10:00:02.042Z,38.13896440368047
2022-10-23T10:15:01.691Z,36.955816683979876
2022-10-23T10:30:02.388Z,36.11263229516849
2022-10-23T10:45:02.090Z,36.57780886190591
2022-10-23T11:00:01.697Z,35.867981209471864
2022-10-23T11:15:02.363Z,35.27320493250931
2022-10-23T11:30:02.080Z,38.12442055243236
2022-10-23T11:45:01.735Z,38.709797704799804
2022-10-23T12:00:01.399Z,38.8555441953625
2022-10-23T12:15:02.057Z,39.54548439416645
2022-10-23T12:30:01.736Z,39.24107200717013
2022-10-23T12:45:01.403Z,40.15837638553632
2022-10-23T13:00:02.063Z,40.46164673824892
2022-10-23T13:15:01.717Z,40.20482848945047
2022-10-23T13:30:01.984Z,39.368341563755045
2022-10-23T13:45:01.921Z,40.93378472841527
2022-10-23T14:00:01.561Z,39.74844866250755
2022-10-23T14:15:02.300Z,38.86333701580862
2022-10-23T14:30:02.176Z,40.06935704814147
2022-10-23T14:45:01.840Z,40.84627836379756
2022-10-23T15:00:02.459Z,41.79556485599802
2022-10-23T15:15:02.080Z,42.45176585799361
2022-10-23T15:30:01.853Z,43.25721183832247
2022-10-23T15:45:01.532Z,44.308413183785596
2022-10-23T16:00:02.144Z,45.06202057102049
2022-10-23T16:15:01.826Z,45.784745355066725
2022-10-23T16:30:02.439Z,46.483520175786964
2022-10-23T16:45:02.073Z,46.951264823162
2022-10-23T17:00:01.709Z,47.06887385942586
2022-10-23T17:15:02.317Z,46.75398010517865
2022-10-23T17:30:02.000Z,46.49719513189487
2022-10-23T17:45:01.682Z,47.736203888170266
2022-10-23T18:00:02.286Z,48.72338468225687
2022-10-23T18:15:01.906Z,52.8287168641396
2022-10-23T18:30:01.605Z,54.8040100098142
2022-10-23T18:45:02.244Z,54.5482540001775
2022-10-23T19:00:01.867Z,53.59912613189969
2022-10-23T19:15:01.502Z,53.632501322923595
2022-10-23T19:30:02.186Z,53.24594541299967
2022-10-23T19:45:01.838Z,54.16755979183954
2022-10-23T20:00:01.485Z,55.34993906340863
2022-10-23T20:15:02.142Z,54.916523942182735
2022-10-23T20:30:01.820Z,54.885427191303954
2022-10-23T20:45:01.499Z,55.01279969547863
2022-10-23T21:00:02.153Z,54.48996835500898
2022-10-23T21:15:01.936Z,53.51480146091886
2022-10-23T21:30:01.704Z,52.258572124361976
2022-10-23T21:45:01.387Z,52.67555628691244
2022-10-23T22:00:02.042Z,52.367663361173626
2022-10-23T22:15:01.786Z,54.3357206139052
2022-10-23T22:30:01.718Z,54.45330854513669
2022-10-23T22:45:02.394Z,54.62124460835255
2022-10-23T23:00:02.009Z,55.01226262317879
2022-10-23T23:15:01.701Z,55.11169597177997
2022-10-23T23:30:02.347Z,54.346742317710714
2022-10-23T23:45:13.584Z,53.01833640837176
